createdAt,value
2019-05-30T00:00:17.067Z,5.00
2019-05-30T00:00:42.769Z,5.00
2019-05-30T00:01:15.891Z,5.00
2019-05-30T00:01:49.010Z,5.00
2019-05-30T00:02:22.113Z,5.00
2019-05-30T00:02:56.630Z,5.00
2019-05-30T00:03:29.591Z,5.00
2019-05-30T00:04:03.302Z,5.00
2019-05-30T00:04:37.339Z,5.00
2019-05-30T00:05:10.613Z,5.00
2019-05-30T00:05:43.715Z,4.90
2019-05-30T00:06:16.841Z,5.00
2019-05-30T00:06:49.588Z,4.90
2019-05-30T00:07:22.692Z,4.90
2019-05-30T00:07:56.193Z,4.90
2019-05-30T00:08:29.608Z,4.90
2019-05-30T00:09:03.259Z,4.90
2019-05-30T00:09:36.535Z,4.90
2019-05-30T00:10:09.716Z,4.90
2019-05-30T00:10:42.818Z,4.90
2019-05-30T00:11:15.547Z,4.90
2019-05-30T00:11:48.675Z,4.90
2019-05-30T00:12:21.808Z,4.80
2019-05-30T00:12:54.916Z,4.80
2019-05-30T00:13:27.642Z,4.80
2019-05-30T00:14:00.769Z,4.80
2019-05-30T00:14:33.900Z,4.80
2019-05-30T00:15:07.471Z,4.80
2019-05-30T00:15:40.306Z,4.80
2019-05-30T00:16:13.411Z,4.80
2019-05-30T00:16:46.506Z,4.80
2019-05-30T00:17:19.635Z,4.80
2019-05-30T00:17:52.371Z,4.80
2019-05-30T00:18:25.479Z,4.70
2019-05-30T00:18:58.786Z,4.70
2019-05-30T00:19:34.019Z,4.70
2019-05-30T00:20:06.372Z,4.70
2019-05-30T00:20:39.461Z,4.70
2019-05-30T00:21:12.563Z,4.70
2019-05-30T00:21:45.673Z,4.70
2019-05-30T00:22:18.390Z,4.70
2019-05-30T00:22:51.517Z,4.70
2019-05-30T00:23:24.652Z,4.60
2019-05-30T00:23:57.887Z,4.70
2019-05-30T00:24:30.579Z,4.60
2019-05-30T00:25:06.337Z,4.60
2019-05-30T00:25:39.663Z,4.60
2019-05-30T00:26:12.386Z,4.60
2019-05-30T00:26:45.492Z,4.60
2019-05-30T00:27:18.591Z,4.60
2019-05-30T00:27:51.695Z,4.60
2019-05-30T00:28:24.434Z,4.60
2019-05-30T00:28:58.207Z,4.60
2019-05-30T00:29:31.567Z,4.60
2019-05-30T00:30:20.826Z,4.60
2019-05-30T00:30:40.671Z,4.50
2019-05-30T00:31:13.787Z,4.50
2019-05-30T00:31:46.505Z,4.50
2019-05-30T00:32:19.614Z,4.60
2019-05-30T00:32:52.723Z,4.50
2019-05-30T00:33:25.823Z,4.50
2019-05-30T00:33:59.532Z,4.50
2019-05-30T00:34:33.009Z,4.50
2019-05-30T00:35:08.828Z,4.50
2019-05-30T00:35:41.551Z,4.50
2019-05-30T00:36:14.659Z,4.50
2019-05-30T00:36:47.764Z,4.50
2019-05-30T00:37:20.866Z,4.40
2019-05-30T00:37:53.582Z,4.50
2019-05-30T00:38:26.689Z,4.40
2019-05-30T00:38:59.801Z,4.50
2019-05-30T00:39:32.930Z,4.40
2019-05-30T00:40:06.947Z,4.40
2019-05-30T00:40:40.046Z,4.40
2019-05-30T00:41:13.155Z,4.40
2019-05-30T00:41:46.255Z,4.40
2019-05-30T00:42:18.986Z,4.40
2019-05-30T00:42:52.083Z,4.40
2019-05-30T00:43:25.188Z,4.40
2019-05-30T00:43:58.303Z,4.40
2019-05-30T00:44:31.029Z,4.40
2019-05-30T00:45:19.615Z,4.30
2019-05-30T00:45:39.833Z,4.40
2019-05-30T00:46:12.572Z,4.40
2019-05-30T00:46:45.668Z,4.30
2019-05-30T00:47:18.770Z,4.30
2019-05-30T00:47:51.873Z,4.30
2019-05-30T00:48:24.596Z,4.30
2019-05-30T00:48:58.227Z,4.30
2019-05-30T00:49:31.504Z,4.30
2019-05-30T00:50:06.710Z,4.30
2019-05-30T00:50:39.983Z,4.30
2019-05-30T00:51:13.107Z,4.30
2019-05-30T00:51:46.220Z,4.30
2019-05-30T00:52:18.930Z,4.30
2019-05-30T00:52:52.038Z,4.30
2019-05-30T00:53:25.135Z,4.30
2019-05-30T00:53:58.578Z,4.20
2019-05-30T00:54:31.289Z,4.30
2019-05-30T00:55:07.007Z,4.20
2019-05-30T00:55:40.257Z,4.20
2019-05-30T00:56:13.033Z,4.20
2019-05-30T00:56:46.150Z,4.20
2019-05-30T00:57:19.257Z,4.20
2019-05-30T00:57:52.369Z,4.20
2019-05-30T00:58:25.087Z,4.20
2019-05-30T00:58:58.666Z,4.20
2019-05-30T00:59:31.915Z,4.20
2019-05-30T01:00:07.124Z,4.20
2019-05-30T01:00:43.836Z,4.20
2019-05-30T01:01:14.958Z,4.20
2019-05-30T01:01:48.079Z,4.20
2019-05-30T01:02:21.203Z,4.20
2019-05-30T01:02:59.896Z,4.20
2019-05-30T01:03:31.618Z,4.20
2019-05-30T01:04:04.994Z,4.20
2019-05-30T01:04:37.951Z,4.10
2019-05-30T01:05:11.062Z,4.10
2019-05-30T01:05:44.163Z,4.20
2019-05-30T01:06:17.273Z,4.10
2019-05-30T01:06:49.990Z,4.10
2019-05-30T01:07:23.114Z,4.10
2019-05-30T01:07:56.722Z,4.10
2019-05-30T01:08:29.849Z,4.10
2019-05-30T01:09:03.183Z,4.10
2019-05-30T01:09:36.386Z,4.10
2019-05-30T01:10:09.551Z,4.10
2019-05-30T01:10:42.651Z,4.10
2019-05-30T01:11:15.392Z,4.10
2019-05-30T01:11:48.534Z,4.10
2019-05-30T01:12:21.599Z,4.00
2019-05-30T01:12:54.722Z,4.10
2019-05-30T01:13:27.501Z,4.10
2019-05-30T01:14:01.103Z,4.00
2019-05-30T01:14:34.383Z,4.00
2019-05-30T01:15:07.641Z,4.00
2019-05-30T01:15:40.378Z,4.00
2019-05-30T01:16:13.483Z,4.00
2019-05-30T01:16:46.597Z,4.00
2019-05-30T01:17:19.703Z,4.00
2019-05-30T01:17:52.435Z,4.00
2019-05-30T01:18:25.562Z,4.00
2019-05-30T01:18:59.060Z,4.00
2019-05-30T01:19:32.299Z,4.00
2019-05-30T01:20:05.899Z,4.00
2019-05-30T01:20:39.007Z,4.00
2019-05-30T01:21:12.109Z,4.00
2019-05-30T01:21:45.242Z,3.90
2019-05-30T01:22:17.930Z,3.90
2019-05-30T01:22:51.041Z,3.90
2019-05-30T01:23:24.144Z,3.90
2019-05-30T01:23:57.268Z,3.90
2019-05-30T01:24:30.019Z,3.90
2019-05-30T01:25:04.712Z,3.90
2019-05-30T01:25:37.973Z,3.90
2019-05-30T01:26:10.707Z,3.90
2019-05-30T01:26:43.867Z,3.90
2019-05-30T01:27:16.925Z,3.90
2019-05-30T01:27:50.040Z,3.90
2019-05-30T01:28:22.766Z,3.90
2019-05-30T01:28:55.874Z,3.90
2019-05-30T01:29:29.282Z,3.90
2019-05-30T01:30:03.641Z,3.80
2019-05-30T01:30:36.735Z,3.80
2019-05-30T01:31:11.564Z,3.80
2019-05-30T01:31:44.586Z,3.80
2019-05-30T01:32:29.518Z,3.80
2019-05-30T01:33:03.743Z,3.80
2019-05-30T01:33:37.124Z,3.80
2019-05-30T01:34:10.228Z,3.80
2019-05-30T01:34:42.977Z,3.80
2019-05-30T01:35:16.095Z,3.80
2019-05-30T01:35:49.207Z,3.80
2019-05-30T01:36:22.308Z,3.80
2019-05-30T01:36:55.033Z,3.80
2019-05-30T01:37:28.130Z,3.80
2019-05-30T01:38:01.842Z,3.80
2019-05-30T01:38:35.147Z,3.70
2019-05-30T01:39:08.259Z,3.70
2019-05-30T01:39:41.475Z,3.70
2019-05-30T01:40:14.611Z,3.70
2019-05-30T01:40:47.738Z,3.70
2019-05-30T01:41:20.455Z,3.70
2019-05-30T01:41:53.569Z,3.70
2019-05-30T01:42:26.672Z,3.70
2019-05-30T01:42:59.962Z,3.70
2019-05-30T01:43:32.719Z,3.70
2019-05-30T01:44:06.104Z,3.70
2019-05-30T01:44:39.428Z,3.70
2019-05-30T01:45:12.549Z,3.70
2019-05-30T01:45:45.299Z,3.70
2019-05-30T01:46:18.437Z,3.70
2019-05-30T01:46:51.589Z,3.60
2019-05-30T01:47:24.643Z,3.70
2019-05-30T01:47:58.193Z,3.60
2019-05-30T01:48:31.372Z,3.60
2019-05-30T01:49:04.477Z,3.60
2019-05-30T01:49:37.582Z,3.60
2019-05-30T01:50:10.380Z,3.60
2019-05-30T01:50:43.486Z,3.60
2019-05-30T01:51:16.612Z,3.60
2019-05-30T01:51:49.738Z,3.60
2019-05-30T01:52:22.468Z,3.60
2019-05-30T01:52:55.574Z,3.60
2019-05-30T01:53:28.683Z,3.60
2019-05-30T01:54:02.549Z,3.60
2019-05-30T01:54:35.406Z,3.60
2019-05-30T01:55:09.114Z,3.60
2019-05-30T01:55:42.385Z,3.60
2019-05-30T01:56:15.499Z,3.50
2019-05-30T01:56:48.245Z,3.50
2019-05-30T01:57:21.376Z,3.50
2019-05-30T01:57:54.479Z,3.50
2019-05-30T01:58:27.584Z,3.50
2019-05-30T01:59:00.678Z,3.50
2019-05-30T01:59:33.831Z,3.50
2019-05-30T02:00:20.221Z,3.50
2019-05-30T02:00:43.415Z,3.50
2019-05-30T02:01:24.257Z,3.50
2019-05-30T02:01:51.272Z,3.50
2019-05-30T02:02:24.399Z,3.50
2019-05-30T02:02:57.146Z,3.50
2019-05-30T02:03:30.249Z,3.50
2019-05-30T02:04:03.388Z,3.40
2019-05-30T02:04:36.465Z,3.40
2019-05-30T02:05:10.566Z,3.40
2019-05-30T02:05:43.665Z,3.40
2019-05-30T02:06:16.777Z,3.40
2019-05-30T02:06:49.887Z,3.40
2019-05-30T02:07:22.608Z,3.40
2019-05-30T02:07:55.736Z,3.40
2019-05-30T02:08:28.854Z,3.40
2019-05-30T02:09:02.915Z,3.40
2019-05-30T02:09:36.138Z,3.40
2019-05-30T02:10:10.053Z,3.40
2019-05-30T02:10:43.532Z,3.40
2019-05-30T02:11:16.637Z,3.40
2019-05-30T02:11:49.362Z,3.40
2019-05-30T02:12:22.450Z,3.40
2019-05-30T02:12:55.554Z,3.40
2019-05-30T02:13:28.677Z,3.30
2019-05-30T02:14:01.649Z,3.30
2019-05-30T02:14:34.726Z,3.30
2019-05-30T02:15:07.876Z,3.30
2019-05-30T02:15:40.939Z,3.30
2019-05-30T02:16:13.671Z,3.30
2019-05-30T02:16:46.777Z,3.30
2019-05-30T02:17:19.878Z,3.30
2019-05-30T02:17:52.981Z,3.30
2019-05-30T02:18:25.716Z,3.30
2019-05-30T02:18:59.516Z,3.30
2019-05-30T02:19:32.761Z,3.30
2019-05-30T02:20:05.942Z,3.30
2019-05-30T02:20:38.667Z,3.30
2019-05-30T02:21:11.778Z,3.30
2019-05-30T02:21:44.882Z,3.30
2019-05-30T02:22:17.984Z,3.30
2019-05-30T02:22:50.720Z,3.30
2019-05-30T02:23:23.819Z,3.20
2019-05-30T02:23:56.924Z,3.30
2019-05-30T02:24:30.057Z,3.30
2019-05-30T02:25:03.944Z,3.30
2019-05-30T02:25:37.076Z,3.20
2019-05-30T02:26:10.525Z,3.20
2019-05-30T02:26:43.792Z,3.30
2019-05-30T02:27:16.509Z,3.20
2019-05-30T02:27:49.623Z,3.20
2019-05-30T02:28:22.727Z,3.20
2019-05-30T02:28:55.835Z,3.20
2019-05-30T02:29:28.557Z,3.20
2019-05-30T02:30:03.998Z,3.20
2019-05-30T02:30:36.471Z,3.20
2019-05-30T02:31:10.105Z,3.20
2019-05-30T02:31:43.931Z,3.20
2019-05-30T02:32:17.034Z,3.20
2019-05-30T02:32:50.162Z,3.20
2019-05-30T02:33:22.872Z,3.20
2019-05-30T02:33:55.975Z,3.20
2019-05-30T02:34:29.083Z,3.10
2019-05-30T02:35:03.498Z,3.10
2019-05-30T02:35:36.584Z,3.10
2019-05-30T02:36:11.985Z,3.10
2019-05-30T02:36:44.479Z,3.10
2019-05-30T02:37:17.199Z,3.10
2019-05-30T02:37:50.307Z,3.10
2019-05-30T02:38:23.406Z,3.10
2019-05-30T02:38:56.506Z,3.10
2019-05-30T02:39:29.238Z,3.10
2019-05-30T02:40:03.943Z,3.00
2019-05-30T02:40:37.092Z,3.10
2019-05-30T02:41:12.230Z,3.00
2019-05-30T02:41:44.614Z,3.00
2019-05-30T02:42:17.714Z,3.00
2019-05-30T02:42:50.820Z,3.00
2019-05-30T02:43:23.932Z,3.00
2019-05-30T02:43:56.649Z,3.00
2019-05-30T02:44:29.748Z,3.00
2019-05-30T02:45:03.613Z,3.00
2019-05-30T02:45:37.234Z,3.00
2019-05-30T02:46:12.368Z,3.00
2019-05-30T02:46:45.110Z,3.00
2019-05-30T02:47:22.174Z,3.00
2019-05-30T02:47:52.612Z,2.90
2019-05-30T02:48:25.717Z,2.90
2019-05-30T02:48:59.924Z,2.90
2019-05-30T02:49:33.216Z,2.90
2019-05-30T02:50:08.447Z,2.90
2019-05-30T02:50:41.399Z,2.90
2019-05-30T02:51:14.131Z,3.00
2019-05-30T02:51:47.238Z,2.90
2019-05-30T02:52:20.367Z,2.90
2019-05-30T02:52:53.490Z,2.90
2019-05-30T02:53:26.213Z,2.90
2019-05-30T02:53:59.322Z,2.90
2019-05-30T02:54:32.450Z,2.90
2019-05-30T02:55:06.669Z,2.90
2019-05-30T02:55:40.436Z,2.90
2019-05-30T02:56:13.544Z,2.90
2019-05-30T02:56:46.651Z,2.90
2019-05-30T02:57:19.754Z,2.90
2019-05-30T02:57:52.503Z,2.90
2019-05-30T02:58:25.616Z,2.90
2019-05-30T02:58:58.728Z,2.90
2019-05-30T02:59:31.832Z,2.90
2019-05-30T03:00:10.466Z,2.90
2019-05-30T03:00:42.252Z,2.90
2019-05-30T03:01:15.347Z,2.90
2019-05-30T03:02:00.759Z,2.90
2019-05-30T03:02:23.196Z,2.90
2019-05-30T03:02:56.301Z,2.90
2019-05-30T03:03:29.426Z,2.90
2019-05-30T03:04:03.887Z,2.90
2019-05-30T03:04:36.919Z,2.90
2019-05-30T03:05:12.818Z,2.90
2019-05-30T03:05:44.521Z,2.90
2019-05-30T03:06:17.696Z,2.90
2019-05-30T03:06:50.794Z,2.90
2019-05-30T03:07:23.898Z,2.90
2019-05-30T03:07:56.617Z,2.90
2019-05-30T03:08:29.731Z,2.90
2019-05-30T03:09:03.957Z,2.90
2019-05-30T03:09:37.201Z,2.90
2019-05-30T03:10:14.231Z,2.90
2019-05-30T03:10:45.054Z,2.90
2019-05-30T03:11:18.163Z,2.90
2019-05-30T03:11:50.951Z,2.90
2019-05-30T03:12:24.729Z,2.90
2019-05-30T03:12:57.827Z,2.90
2019-05-30T03:13:30.934Z,2.90
2019-05-30T03:14:04.494Z,3.00
2019-05-30T03:14:38.433Z,3.00
2019-05-30T03:15:14.363Z,3.00
2019-05-30T03:15:45.929Z,3.00
2019-05-30T03:16:19.033Z,3.00
2019-05-30T03:16:52.133Z,3.00
2019-05-30T03:17:25.234Z,3.00
2019-05-30T03:17:57.972Z,3.00
2019-05-30T03:18:31.072Z,3.00
2019-05-30T03:19:04.204Z,3.00
2019-05-30T03:19:37.280Z,3.00
2019-05-30T03:20:18.799Z,3.00
2019-05-30T03:20:44.874Z,3.10
2019-05-30T03:21:17.977Z,3.10
2019-05-30T03:21:50.705Z,3.10
2019-05-30T03:22:23.802Z,3.10
2019-05-30T03:22:56.921Z,3.10
2019-05-30T03:23:30.023Z,3.10
2019-05-30T03:24:04.854Z,3.10
2019-05-30T03:24:37.490Z,3.10
2019-05-30T03:25:13.601Z,3.10
2019-05-30T03:25:44.997Z,3.20
2019-05-30T03:26:18.136Z,3.20
2019-05-30T03:26:51.237Z,3.20
2019-05-30T03:27:24.335Z,3.20
2019-05-30T03:27:57.063Z,3.20
2019-05-30T03:28:30.155Z,3.30
2019-05-30T03:29:05.019Z,3.30
2019-05-30T03:29:38.014Z,3.30
2019-05-30T03:30:24.316Z,3.30
2019-05-30T03:30:45.608Z,3.30
2019-05-30T03:31:27.997Z,3.30
2019-05-30T03:31:53.171Z,3.30
2019-05-30T03:33:15.660Z,3.40
2019-05-30T03:33:40.422Z,3.40
2019-05-30T03:34:22.123Z,3.40
2019-05-30T03:34:44.970Z,3.40
2019-05-30T03:35:27.815Z,3.40
2019-05-30T03:35:52.451Z,3.40
2019-05-30T03:36:30.858Z,3.50
2019-05-30T03:36:59.959Z,3.50
2019-05-30T03:37:33.155Z,3.50
2019-05-30T03:38:07.971Z,3.50
2019-05-30T03:38:40.625Z,3.50
2019-05-30T03:39:15.482Z,3.50
2019-05-30T03:39:48.483Z,3.60
2019-05-30T03:40:23.046Z,3.60
2019-05-30T03:40:55.965Z,3.60
2019-05-30T03:41:29.059Z,3.60
2019-05-30T03:42:02.170Z,3.60
2019-05-30T03:42:34.916Z,3.70
2019-05-30T03:43:09.196Z,3.70
2019-05-30T03:43:42.801Z,3.70
2019-05-30T03:44:15.872Z,3.70
2019-05-30T03:44:49.242Z,3.70
2019-05-30T03:45:22.336Z,3.70
2019-05-30T03:45:55.512Z,3.80
2019-05-30T03:46:32.583Z,3.80
2019-05-30T03:47:06.772Z,3.80
2019-05-30T03:47:45.227Z,3.80
2019-05-30T03:48:18.006Z,3.90
2019-05-30T03:48:52.084Z,3.90
2019-05-30T03:49:25.860Z,3.90
2019-05-30T03:49:58.588Z,3.90
2019-05-30T03:50:31.702Z,3.90
2019-05-30T03:51:06.183Z,4.00
2019-05-30T03:51:39.400Z,4.00
2019-05-30T03:52:16.850Z,4.00
2019-05-30T03:52:47.821Z,4.00
2019-05-30T03:53:20.572Z,4.10
2019-05-30T03:53:53.697Z,4.10
2019-05-30T03:54:26.867Z,4.10
2019-05-30T03:54:59.978Z,4.10
2019-05-30T03:55:32.699Z,4.20
2019-05-30T03:56:09.357Z,4.20
2019-05-30T03:56:46.740Z,4.20
2019-05-30T03:57:27.292Z,4.20
2019-05-30T03:58:12.780Z,4.30
2019-05-30T03:58:56.484Z,4.30
2019-05-30T03:59:32.599Z,4.30
2019-05-30T04:00:09.460Z,4.40
2019-05-30T04:00:43.705Z,4.40
2019-05-30T04:01:18.687Z,4.40
2019-05-30T04:01:53.611Z,4.40
2019-05-30T04:02:56.549Z,4.40
2019-05-30T04:03:19.419Z,4.50
2019-05-30T04:04:11.593Z,4.50
2019-05-30T04:04:45.888Z,4.60
2019-05-30T04:05:32.589Z,4.60
2019-05-30T04:06:07.841Z,4.60
2019-05-30T04:06:43.448Z,4.60
2019-05-30T04:07:19.581Z,4.60
2019-05-30T04:07:53.700Z,4.70
2019-05-30T04:08:27.673Z,4.70
2019-05-30T04:09:02.030Z,4.70
2019-05-30T04:09:35.153Z,4.80
2019-05-30T04:10:09.032Z,4.80
2019-05-30T04:10:42.112Z,4.80
2019-05-30T04:11:17.026Z,4.80
2019-05-30T04:11:54.445Z,4.90
2019-05-30T04:12:45.518Z,4.90
2019-05-30T04:13:22.974Z,4.90
2019-05-30T04:13:56.926Z,5.00
2019-05-30T04:14:31.024Z,5.00
2019-05-30T04:15:07.819Z,5.00
2019-05-30T04:15:40.553Z,5.10
2019-05-30T04:16:13.979Z,5.10
2019-05-30T04:16:48.091Z,5.10
2019-05-30T04:17:21.195Z,5.10
2019-05-30T04:17:54.308Z,5.10
2019-05-30T04:18:27.028Z,5.20
2019-05-30T04:19:00.143Z,5.20
2019-05-30T04:19:33.243Z,5.20
2019-05-30T04:20:07.097Z,5.20
2019-05-30T04:20:40.266Z,5.30
2019-05-30T04:21:15.987Z,5.30
2019-05-30T04:21:48.170Z,5.30
2019-05-30T04:22:21.254Z,5.30
2019-05-30T04:22:53.985Z,5.40
2019-05-30T04:23:27.092Z,5.40
2019-05-30T04:24:00.187Z,5.40
2019-05-30T04:24:33.287Z,5.40
2019-05-30T04:25:06.384Z,5.40
2019-05-30T04:25:39.497Z,5.50
2019-05-30T04:26:13.648Z,5.50
2019-05-30T04:26:47.062Z,5.50
2019-05-30T04:27:19.775Z,5.50
2019-05-30T04:27:52.884Z,5.60
2019-05-30T04:28:25.976Z,5.60
2019-05-30T04:28:59.084Z,5.60
2019-05-30T04:29:31.811Z,5.60
2019-05-30T04:30:07.783Z,5.60
2019-05-30T04:30:40.992Z,5.70
2019-05-30T04:31:14.498Z,5.70
2019-05-30T04:31:47.879Z,5.70
2019-05-30T04:32:21.001Z,5.70
2019-05-30T04:32:54.104Z,5.80
2019-05-30T04:33:33.051Z,5.80
2019-05-30T04:34:01.585Z,5.80
2019-05-30T04:34:34.683Z,5.80
2019-05-30T04:35:08.033Z,5.80
2019-05-30T04:35:41.319Z,5.90
2019-05-30T04:36:14.660Z,5.90
2019-05-30T04:36:52.713Z,5.90
2019-05-30T04:37:23.155Z,5.90
2019-05-30T04:37:56.283Z,6.00
2019-05-30T04:38:29.473Z,6.00
2019-05-30T04:39:02.635Z,6.00
2019-05-30T04:39:35.356Z,6.00
2019-05-30T04:40:08.576Z,6.10
2019-05-30T04:40:42.136Z,6.10
2019-05-30T04:41:15.956Z,6.10
2019-05-30T04:41:49.615Z,6.10
2019-05-30T04:42:22.714Z,6.20
2019-05-30T04:42:56.136Z,6.20
2019-05-30T04:43:29.404Z,6.20
2019-05-30T04:44:02.123Z,6.20
2019-05-30T04:44:35.470Z,6.30
2019-05-30T04:45:09.659Z,6.30
2019-05-30T04:45:43.260Z,6.30
2019-05-30T04:46:17.285Z,6.30
2019-05-30T04:46:50.829Z,6.40
2019-05-30T04:47:23.940Z,6.40
2019-05-30T04:47:56.806Z,6.40
2019-05-30T04:48:29.940Z,6.40
2019-05-30T04:49:03.132Z,6.40
2019-05-30T04:49:36.552Z,6.50
2019-05-30T04:50:10.282Z,6.50
2019-05-30T04:50:43.841Z,6.50
2019-05-30T04:51:19.018Z,6.50
2019-05-30T04:51:51.313Z,6.60
2019-05-30T04:52:25.054Z,6.60
2019-05-30T04:52:58.431Z,6.60
2019-05-30T04:53:31.528Z,6.60
2019-05-30T04:54:04.471Z,6.70
2019-05-30T04:54:37.591Z,6.70
2019-05-30T04:55:12.612Z,6.70
2019-05-30T04:55:45.068Z,6.70
2019-05-30T04:56:19.324Z,6.80
2019-05-30T04:56:53.038Z,6.80
2019-05-30T04:57:27.253Z,6.80
2019-05-30T04:58:00.332Z,6.80
2019-05-30T04:58:33.443Z,6.90
2019-05-30T04:59:06.692Z,6.90
2019-05-30T04:59:39.991Z,6.90
2019-05-30T05:00:13.040Z,6.90
2019-05-30T05:00:46.251Z,6.90
2019-05-30T05:01:20.123Z,7.00
2019-05-30T05:01:53.791Z,7.00
2019-05-30T05:02:26.895Z,7.00
2019-05-30T05:03:00.000Z,7.00
2019-05-30T05:03:45.213Z,7.10
2019-05-30T05:04:07.478Z,7.10
2019-05-30T05:04:40.716Z,7.10
2019-05-30T05:05:18.757Z,7.10
2019-05-30T05:05:48.255Z,7.20
2019-05-30T05:06:22.023Z,7.20
2019-05-30T05:06:55.562Z,7.20
2019-05-30T05:07:28.675Z,7.30
2019-05-30T05:08:01.396Z,7.30
2019-05-30T05:08:34.511Z,7.30
2019-05-30T05:09:07.863Z,7.40
2019-05-30T05:09:40.964Z,7.30
2019-05-30T05:10:14.031Z,7.40
2019-05-30T05:10:47.231Z,7.40
2019-05-30T05:11:22.934Z,7.40
2019-05-30T05:11:54.734Z,7.50
2019-05-30T05:12:27.835Z,7.50
2019-05-30T05:13:00.947Z,7.50
2019-05-30T05:13:34.050Z,7.60
2019-05-30T05:14:06.770Z,7.60
2019-05-30T05:14:39.884Z,7.60
2019-05-30T05:15:14.253Z,7.60
2019-05-30T05:15:47.402Z,7.70
2019-05-30T05:16:30.703Z,7.70
2019-05-30T05:16:54.908Z,7.70
2019-05-30T05:17:28.010Z,7.70
2019-05-30T05:18:01.124Z,7.80
2019-05-30T05:18:33.848Z,7.80
2019-05-30T05:19:06.947Z,7.80
2019-05-30T05:19:40.054Z,7.80
2019-05-30T05:20:13.218Z,7.90
2019-05-30T05:20:45.987Z,7.90
2019-05-30T05:21:19.095Z,7.90
2019-05-30T05:21:52.214Z,7.90
2019-05-30T05:22:25.348Z,8.00
2019-05-30T05:22:58.078Z,8.00
2019-05-30T05:23:31.178Z,8.00
2019-05-30T05:24:04.283Z,8.00
2019-05-30T05:24:37.387Z,8.00
2019-05-30T05:25:10.111Z,8.10
2019-05-30T05:25:43.219Z,8.10
2019-05-30T05:26:17.360Z,8.10
2019-05-30T05:26:50.529Z,8.10
2019-05-30T05:27:24.027Z,8.10
2019-05-30T05:27:57.601Z,8.10
2019-05-30T05:28:30.715Z,8.20
2019-05-30T05:29:03.825Z,8.20
2019-05-30T05:29:36.548Z,8.20
2019-05-30T05:30:10.009Z,8.20
2019-05-30T05:30:43.112Z,8.20
2019-05-30T05:31:16.514Z,8.20
2019-05-30T05:31:49.519Z,8.30
2019-05-30T05:32:22.706Z,8.30
2019-05-30T05:32:55.842Z,8.30
2019-05-30T05:33:28.977Z,8.30
2019-05-30T05:34:01.694Z,8.30
2019-05-30T05:34:34.804Z,8.30
2019-05-30T05:35:07.988Z,8.30
2019-05-30T05:35:41.092Z,8.30
2019-05-30T05:36:14.840Z,8.40
2019-05-30T05:36:48.118Z,8.40
2019-05-30T05:37:21.235Z,8.40
2019-05-30T05:37:54.332Z,8.40
2019-05-30T05:38:28.415Z,8.40
2019-05-30T05:39:01.778Z,8.40
2019-05-30T05:39:34.867Z,8.40
2019-05-30T05:40:07.984Z,8.50
2019-05-30T05:40:40.770Z,8.50
2019-05-30T05:41:13.872Z,8.50
2019-05-30T05:41:46.979Z,8.50
2019-05-30T05:42:20.285Z,8.50
2019-05-30T05:42:53.320Z,8.60
2019-05-30T05:43:26.415Z,8.60
2019-05-30T05:43:59.542Z,8.60
2019-05-30T05:44:32.663Z,8.60
2019-05-30T05:45:06.453Z,8.60
2019-05-30T05:45:39.554Z,8.60
2019-05-30T05:46:12.662Z,8.60
2019-05-30T05:46:45.763Z,8.70
2019-05-30T05:47:18.555Z,8.70
2019-05-30T05:47:51.591Z,8.70
2019-05-30T05:48:24.820Z,8.70
2019-05-30T05:48:57.899Z,8.70
2019-05-30T05:49:30.648Z,8.80
2019-05-30T05:50:04.534Z,8.80
2019-05-30T05:50:37.631Z,8.80
2019-05-30T05:51:10.799Z,8.80
2019-05-30T05:51:43.458Z,8.80
2019-05-30T05:52:16.930Z,8.80
2019-05-30T05:52:50.112Z,8.90
2019-05-30T05:53:23.220Z,8.90
2019-05-30T05:53:55.939Z,8.90
2019-05-30T05:54:29.297Z,8.90
2019-05-30T05:55:02.392Z,8.90
2019-05-30T05:55:35.545Z,9.00
2019-05-30T05:56:08.264Z,9.00
2019-05-30T05:56:41.367Z,9.00
2019-05-30T05:57:14.470Z,9.00
2019-05-30T05:57:47.577Z,9.00
2019-05-30T05:58:20.884Z,9.10
2019-05-30T05:58:54.293Z,9.10
2019-05-30T05:59:27.396Z,9.10
2019-05-30T06:00:00.506Z,9.10
2019-05-30T06:00:33.245Z,9.20
2019-05-30T06:01:06.376Z,9.20
2019-05-30T06:01:39.637Z,9.20
2019-05-30T06:02:12.813Z,9.20
2019-05-30T06:02:45.531Z,9.30
2019-05-30T06:03:19.197Z,9.30
2019-05-30T06:03:53.545Z,9.30
2019-05-30T06:04:27.292Z,9.30
2019-05-30T06:05:00.462Z,9.40
2019-05-30T06:05:33.576Z,9.40
2019-05-30T06:06:06.704Z,9.40
2019-05-30T06:06:39.449Z,9.40
2019-05-30T06:07:12.551Z,9.40
2019-05-30T06:07:45.673Z,9.50
2019-05-30T06:08:19.499Z,9.50
2019-05-30T06:08:52.391Z,9.50
2019-05-30T06:09:25.495Z,9.50
2019-05-30T06:09:58.607Z,9.60
2019-05-30T06:10:31.704Z,9.60
2019-05-30T06:11:04.711Z,9.60
2019-05-30T06:11:37.833Z,9.60
2019-05-30T06:12:10.965Z,9.70
2019-05-30T06:12:44.069Z,9.70
2019-05-30T06:13:16.808Z,9.70
2019-05-30T06:13:49.912Z,9.70
2019-05-30T06:14:24.212Z,9.80
2019-05-30T06:14:57.373Z,9.80
2019-05-30T06:15:30.162Z,9.80
2019-05-30T06:16:03.278Z,9.80
2019-05-30T06:16:36.383Z,9.80
2019-05-30T06:17:09.511Z,9.90
2019-05-30T06:17:42.253Z,9.90
2019-05-30T06:18:15.363Z,9.90
2019-05-30T06:18:48.670Z,10.00
2019-05-30T06:19:21.789Z,10.00
2019-05-30T06:19:55.617Z,10.00
2019-05-30T06:20:28.730Z,10.00
2019-05-30T06:21:01.831Z,10.10
2019-05-30T06:21:34.946Z,10.10
2019-05-30T06:22:07.963Z,10.10
2019-05-30T06:22:41.263Z,10.10
2019-05-30T06:23:14.395Z,10.20
2019-05-30T06:23:47.510Z,10.20
2019-05-30T06:24:21.465Z,10.20
2019-05-30T06:24:54.847Z,10.20
2019-05-30T06:25:32.529Z,10.30
2019-05-30T06:26:02.507Z,10.30
2019-05-30T06:26:35.579Z,10.30
2019-05-30T06:27:08.686Z,10.30
2019-05-30T06:27:41.791Z,10.40
2019-05-30T06:28:14.541Z,10.40
2019-05-30T06:28:47.764Z,10.40
2019-05-30T06:29:22.074Z,10.50
2019-05-30T06:29:55.303Z,10.50
2019-05-30T06:30:28.771Z,10.50
2019-05-30T06:31:02.008Z,10.50
2019-05-30T06:31:35.115Z,10.50
2019-05-30T06:32:08.226Z,10.60
2019-05-30T06:32:40.959Z,10.60
2019-05-30T06:33:14.139Z,10.60
2019-05-30T06:33:47.288Z,10.60
2019-05-30T06:34:30.306Z,10.60
2019-05-30T06:34:54.797Z,10.70
2019-05-30T06:35:29.445Z,10.70
2019-05-30T06:36:02.755Z,10.70
2019-05-30T06:36:35.466Z,10.70
2019-05-30T06:37:11.940Z,10.70
2019-05-30T06:37:43.334Z,10.70
2019-05-30T06:38:16.063Z,10.80
2019-05-30T06:38:49.174Z,10.80
2019-05-30T06:39:23.360Z,10.80
2019-05-30T06:39:56.843Z,10.80
2019-05-30T06:40:30.900Z,10.80
2019-05-30T06:41:04.336Z,10.80
2019-05-30T06:41:37.448Z,10.80
2019-05-30T06:42:10.173Z,10.90
2019-05-30T06:42:43.292Z,10.90
2019-05-30T06:43:16.403Z,10.90
2019-05-30T06:43:49.518Z,10.90
2019-05-30T06:44:22.243Z,11.00
2019-05-30T06:44:55.374Z,11.00
2019-05-30T06:45:28.650Z,11.00
2019-05-30T06:46:01.791Z,11.00
2019-05-30T06:46:34.592Z,11.10
2019-05-30T06:47:07.697Z,11.10
2019-05-30T06:47:40.803Z,11.10
2019-05-30T06:48:13.920Z,11.10
2019-05-30T06:48:46.651Z,11.20
2019-05-30T06:49:20.611Z,11.20
2019-05-30T06:49:53.766Z,11.20
2019-05-30T06:50:26.932Z,11.20
2019-05-30T06:50:59.641Z,11.20
2019-05-30T06:51:32.753Z,11.30
2019-05-30T06:52:05.881Z,11.30
2019-05-30T06:52:38.967Z,11.30
2019-05-30T06:53:11.819Z,11.30
2019-05-30T06:53:45.058Z,11.40
2019-05-30T06:54:18.162Z,11.40
2019-05-30T06:54:51.415Z,11.40
2019-05-30T06:55:25.130Z,11.40
2019-05-30T06:55:58.375Z,11.40
2019-05-30T06:56:31.624Z,11.50
2019-05-30T06:57:05.044Z,11.50
2019-05-30T06:57:37.840Z,11.50
2019-05-30T06:58:11.089Z,11.50
2019-05-30T06:58:48.687Z,11.50
2019-05-30T06:59:18.581Z,11.60
2019-05-30T06:59:51.688Z,11.60
2019-05-30T07:00:26.463Z,11.60
2019-05-30T07:00:59.334Z,11.60
2019-05-30T07:01:32.639Z,11.60
2019-05-30T07:02:05.766Z,11.60
2019-05-30T07:02:38.881Z,11.70
2019-05-30T07:03:11.630Z,11.70
2019-05-30T07:03:45.071Z,11.70
2019-05-30T07:04:18.989Z,11.70
2019-05-30T07:04:52.967Z,11.70
2019-05-30T07:05:27.874Z,11.70
2019-05-30T07:06:01.291Z,11.80
2019-05-30T07:06:34.847Z,11.80
2019-05-30T07:07:08.192Z,11.80
2019-05-30T07:07:41.790Z,11.80
2019-05-30T07:08:15.066Z,11.90
2019-05-30T07:08:48.240Z,11.90
2019-05-30T07:09:20.967Z,11.90
2019-05-30T07:09:54.082Z,11.90
2019-05-30T07:10:27.200Z,11.90
2019-05-30T07:11:00.302Z,11.90
2019-05-30T07:11:33.152Z,11.90
2019-05-30T07:12:06.239Z,11.90
2019-05-30T07:12:39.372Z,12.00
2019-05-30T07:13:12.495Z,12.00
2019-05-30T07:13:45.499Z,12.00
2019-05-30T07:14:18.623Z,12.00
2019-05-30T07:14:51.735Z,12.00
2019-05-30T07:15:25.096Z,12.00
2019-05-30T07:15:57.966Z,12.10
2019-05-30T07:16:31.494Z,12.10
2019-05-30T07:17:04.757Z,12.10
2019-05-30T07:17:37.873Z,12.10
2019-05-30T07:18:10.626Z,12.20
2019-05-30T07:18:43.761Z,12.10
2019-05-30T07:19:16.867Z,12.20
2019-05-30T07:19:49.978Z,12.20
2019-05-30T07:20:23.488Z,12.20
2019-05-30T07:20:56.917Z,12.20
2019-05-30T07:21:30.030Z,12.30
2019-05-30T07:22:03.168Z,12.30
2019-05-30T07:22:36.079Z,12.30
2019-05-30T07:23:09.193Z,12.30
2019-05-30T07:23:42.322Z,12.30
2019-05-30T07:24:15.453Z,12.30